Time;durP1;ratioP1;P1;durP2;ratioP2;P2;SDS_P1;SDS_P2;PMS_P1;PMS_P2;Temp;Humidity;BMP_temperature;BMP_pressure;BME280_temperature;BME280_humidity;BME280_pressure;Samples;Min_cycle;Max_cycle;Signal;HPM_P1;HPM_P2
2021/11/19 00:01:56;;;;;;;24.77;15.40;;;;;;;8.90;100.00;101391.56;5067380;28;20479;-74
2021/11/19 00:04:25;;;;;;;26.23;14.48;;;;;;;8.92;100.00;101399.38;5053800;28;20127;-78
2021/11/19 00:06:57;;;;;;;29.05;14.63;;;;;;;8.91;100.00;101397.66;5065819;28;20037;-76
2021/11/19 00:09:26;;;;;;;23.95;15.40;;;;;;;8.91;100.00;101381.91;5059003;28;20847;-76
2021/11/19 00:11:54;;;;;;;25.80;15.35;;;;;;;8.95;100.00;101386.97;5066715;28;20094;-75
2021/11/19 00:14:25;;;;;;;25.90;14.50;;;;;;;8.98;100.00;101386.00;5041439;28;20060;-75
2021/11/19 00:16:57;;;;;;;22.63;15.35;;;;;;;8.96;100.00;101380.81;5050844;28;20623;-76
2021/11/19 00:19:25;;;;;;;21.05;14.82;;;;;;;8.96;100.00;101390.44;5054739;28;20044;-75
2021/11/19 00:21:56;;;;;;;32.10;16.27;;;;;;;8.93;100.00;101383.56;5052436;28;20391;-78
2021/11/19 00:24:25;;;;;;;22.60;15.68;;;;;;;8.99;100.00;101375.44;5063590;28;20052;-76
2021/11/19 00:26:56;;;;;;;27.00;14.77;;;;;;;8.96;100.00;101375.56;5052185;28;20146;-76
2021/11/19 00:29:31;;;;;;;32.75;17.02;;;;;;;8.97;100.00;101402.69;5040079;28;20047;-75
2021/11/19 00:31:59;;;;;;;32.25;17.00;;;;;;;8.97;100.00;101377.28;5070922;28;20094;-75
2021/11/19 00:34:26;;;;;;;31.05;15.20;;;;;;;8.99;100.00;101379.81;5066709;28;20051;-74
2021/11/19 00:36:56;;;;;;;23.75;14.85;;;;;;;9.04;100.00;101375.25;5058311;28;20049;-76
2021/11/19 00:39:25;;;;;;;30.75;14.68;;;;;;;9.08;100.00;101395.22;5060865;28;20831;-78
2021/11/19 00:41:54;;;;;;;25.23;14.93;;;;;;;9.07;100.00;101372.50;5040760;28;20048;-74
2021/11/19 00:44:25;;;;;;;23.08;15.57;;;;;;;9.07;100.00;101365.47;5066091;28;20057;-75
2021/11/19 00:46:53;;;;;;;21.30;15.02;;;;;;;9.10;100.00;101361.88;5072454;28;20506;-75
2021/11/19 00:49:30;;;;;;;26.50;13.73;;;;;;;9.12;100.00;101376.63;5063019;28;20033;-75
2021/11/19 00:52:13;;;;;;;32.70;16.05;;;;;;;9.10;100.00;101382.88;5074769;28;20059;-75
2021/11/19 00:54:43;;;;;;;23.35;15.65;;;;;;;9.15;100.00;101390.59;5056584;28;20464;-74
2021/11/19 00:57:15;;;;;;;23.20;14.48;;;;;;;9.15;100.00;101380.94;5051081;28;20131;-75
2021/11/19 00:59:43;;;;;;;20.58;15.05;;;;;;;9.19;100.00;101389.53;5065353;28;20657;-75
2021/11/19 01:02:22;;;;;;;26.83;15.73;;;;;;;9.21;100.00;101392.94;5069300;28;20048;-76
2021/11/19 01:04:53;;;;;;;26.98;15.50;;;;;;;9.19;100.00;101384.28;5060955;28;20044;-74
2021/11/19 01:07:21;;;;;;;25.85;16.45;;;;;;;9.21;100.00;101385.06;5055754;28;20056;-74
2021/11/19 01:09:58;;;;;;;28.38;15.60;;;;;;;9.18;100.00;101372.06;5049094;28;20094;-75
2021/11/19 01:12:32;;;;;;;31.75;16.27;;;;;;;9.16;100.00;101381.78;5046754;28;20068;-76
2021/11/19 01:15:09;;;;;;;28.88;17.50;;;;;;;9.10;100.00;101386.38;5064441;28;20057;-76
2021/11/19 01:17:44;;;;;;;24.05;15.52;;;;;;;9.14;100.00;101392.34;5054754;28;20391;-75
2021/11/19 01:20:29;;;;;;;27.17;16.77;;;;;;;9.23;100.00;101388.47;5035161;28;20525;-75
2021/11/19 01:23:11;;;;;;;23.88;16.42;;;;;;;9.25;100.00;101384.88;5068831;28;20048;-75
2021/11/19 01:25:42;;;;;;;24.23;16.00;;;;;;;9.24;100.00;101390.22;5022496;28;20040;-75
2021/11/19 01:28:11;;;;;;;26.58;15.95;;;;;;;9.23;100.00;101388.47;5069435;28;20490;-76
2021/11/19 01:30:51;;;;;;;22.38;15.15;;;;;;;9.28;100.00;101390.03;5050341;28;20040;-75
2021/11/19 01:33:18;;;;;;;25.67;16.25;;;;;;;9.30;100.00;101384.69;5049410;28;20096;-76
2021/11/19 01:35:46;;;;;;;23.52;16.13;;;;;;;9.24;100.00;101398.94;5051243;28;20446;-75
2021/11/19 01:38:13;;;;;;;25.13;15.65;;;;;;;9.25;100.00;101400.63;5064784;28;20041;-77
2021/11/19 01:40:47;;;;;;;30.02;16.90;;;;;;;9.32;100.00;101390.72;5045337;28;20473;-75
2021/11/19 01:43:15;;;;;;;24.80;16.25;;;;;;;9.32;100.00;101402.13;5051970;28;20075;-77
2021/11/19 01:45:45;;;;;;;27.85;16.00;;;;;;;9.28;100.00;101403.16;5040949;28;20511;-76
2021/11/19 01:48:16;;;;;;;29.38;17.50;;;;;;;9.27;100.00;101405.81;5067577;28;20401;-76
2021/11/19 01:51:05;;;;;;;23.67;15.30;;;;;;;9.27;100.00;101380.41;5063910;28;20075;-73
2021/11/19 01:53:39;;;;;;;24.33;16.50;;;;;;;9.28;100.00;101392.66;5049558;28;20102;-76
2021/11/19 01:56:23;;;;;;;24.58;16.90;;;;;;;9.32;100.00;101377.59;5060692;28;20460;-76
2021/11/19 01:58:58;;;;;;;21.83;16.40;;;;;;;9.29;100.00;101375.09;5057906;28;20494;-77
2021/11/19 02:01:31;;;;;;;25.00;16.15;;;;;;;9.33;100.00;101379.31;5061286;28;20487;-75
2021/11/19 02:04:09;;;;;;;22.67;15.20;;;;;;;9.36;100.00;101368.66;5040858;28;20045;-76
2021/11/19 02:06:44;;;;;;;25.38;16.30;;;;;;;9.35;100.00;101362.53;5047802;28;20053;-75
2021/11/19 02:09:19;;;;;;;22.30;16.67;;;;;;;9.42;100.00;101362.31;5045622;28;20494;-77
2021/11/19 02:12:00;;;;;;;;;;;;;;;9.43;100.00;101369.28;5062506;28;20070;-75
2021/11/19 02:14:44;;;;;;;22.45;15.63;;;;;;;9.42;100.00;101359.69;5063778;28;19925;-76
2021/11/19 02:17:13;;;;;;;22.77;15.25;;;;;;;9.44;100.00;101350.78;5049985;28;20040;-76
2021/11/19 02:19:46;;;;;;;24.10;15.13;;;;;;;9.46;100.00;101364.75;5061673;28;20518;-75
2021/11/19 02:22:23;;;;;;;21.50;14.93;;;;;;;9.51;100.00;101357.50;5066972;28;20048;-76
2021/11/19 02:25:02;;;;;;;22.85;15.10;;;;;;;9.49;100.00;101347.97;5047273;28;20616;-75
2021/11/19 02:27:43;;;;;;;26.17;15.27;;;;;;;9.50;100.00;101365.44;5068385;28;20433;-75
2021/11/19 02:30:12;;;;;;;23.73;15.40;;;;;;;9.50;100.00;101360.19;5053824;28;20072;-75
2021/11/19 02:32:43;;;;;;;22.55;15.73;;;;;;;9.53;100.00;101354.81;5068127;28;20048;-76
2021/11/19 02:35:19;;;;;;;22.25;15.63;;;;;;;9.57;100.00;101359.00;5062746;28;20190;-76
2021/11/19 02:37:52;;;;;;;22.02;16.40;;;;;;;9.58;100.00;101350.19;5070055;28;20078;-74
2021/11/19 02:40:28;;;;;;;21.92;15.57;;;;;;;9.58;100.00;101351.06;5044581;28;20071;-75
2021/11/19 02:43:00;;;;;;;20.88;15.25;;;;;;;9.60;100.00;101356.25;5064150;28;20048;-75
2021/11/19 02:45:40;;;;;;;17.40;15.48;;;;;;;9.61;100.00;101360.59;5062432;28;20077;-75
2021/11/19 02:48:11;;;;;;;22.52;16.02;;;;;;;9.61;100.00;101379.00;5065068;28;20111;-78
2021/11/19 02:50:39;;;;;;;25.75;15.90;;;;;;;9.63;100.00;101372.72;5055724;28;20044;-74
2021/11/19 02:53:07;;;;;;;21.63;14.52;;;;;;;9.69;100.00;101376.91;5066721;28;20052;-76
2021/11/19 02:55:38;;;;;;;18.08;14.38;;;;;;;9.68;100.00;101371.69;5043675;28;20152;-75
2021/11/19 02:58:09;;;;;;;17.45;15.25;;;;;;;9.69;100.00;101370.78;5066575;28;20619;-76
2021/11/19 03:00:44;;;;;;;24.60;15.18;;;;;;;9.73;100.00;101380.25;5046881;28;20124;-76
2021/11/19 03:03:11;;;;;;;23.58;14.90;;;;;;;9.73;100.00;101367.13;5062890;28;20052;-76
2021/11/19 03:05:40;;;;;;;18.73;15.57;;;;;;;9.72;100.00;101368.84;5040754;28;20045;-75
2021/11/19 03:08:07;;;;;;;22.42;14.82;;;;;;;9.73;100.00;101364.47;5048545;28;20585;-76
2021/11/19 03:10:39;;;;;;;22.15;15.43;;;;;;;9.76;100.00;101367.81;5056933;28;20064;-75
2021/11/19 03:13:08;;;;;;;24.88;16.08;;;;;;;9.87;100.00;101364.72;5047372;28;20133;-75
2021/11/19 03:15:42;;;;;;;21.17;14.07;;;;;;;9.82;100.00;101364.06;5060906;28;20049;-76
2021/11/19 03:18:13;;;;;;;19.80;12.73;;;;;;;9.83;100.00;101369.25;5046042;28;20053;-77
2021/11/19 03:20:42;;;;;;;22.65;14.68;;;;;;;9.80;100.00;101368.53;5058489;28;20040;-74
2021/11/19 03:23:09;;;;;;;19.42;13.80;;;;;;;9.85;100.00;101370.03;5064415;28;20057;-78
2021/11/19 03:25:39;;;;;;;18.40;13.60;;;;;;;9.85;100.00;101371.81;5068500;28;20063;-75
2021/11/19 03:28:07;;;;;;;20.20;13.57;;;;;;;9.87;100.00;101375.25;5063809;28;20056;-76
2021/11/19 03:30:37;;;;;;;17.30;13.40;;;;;;;9.87;100.00;101376.09;5044053;28;20139;-75
2021/11/19 03:33:06;;;;;;;17.60;13.18;;;;;;;9.94;100.00;101371.41;5049201;28;20516;-78
2021/11/19 03:35:34;;;;;;;18.83;14.02;;;;;;;9.94;100.00;101366.16;5058853;28;20523;-77
2021/11/19 03:38:02;;;;;;;22.38;14.55;;;;;;;10.01;100.00;101375.47;5050160;28;20134;-79
2021/11/19 03:40:35;;;;;;;17.98;13.50;;;;;;;9.96;100.00;101372.22;5040200;28;20049;-78
2021/11/19 03:43:05;;;;;;;18.60;12.10;;;;;;;9.99;100.00;101374.69;5067765;28;20544;-76
2021/11/19 03:45:38;;;;;;;18.27;13.20;;;;;;;9.93;100.00;101382.00;5033193;28;20052;-75
2021/11/19 03:48:06;;;;;;;18.52;13.38;;;;;;;9.96;100.00;101385.34;5064928;28;20525;-76
2021/11/19 03:50:43;;;;;;;20.58;13.80;;;;;;;9.99;100.00;101384.34;5060523;28;20499;-75
2021/11/19 03:53:12;;;;;;;17.92;13.38;;;;;;;9.94;100.00;101376.66;5050037;28;20072;-76
2021/11/19 03:55:45;;;;;;;20.38;13.82;;;;;;;10.00;100.00;101371.16;5060286;28;20055;-74
2021/11/19 03:58:18;;;;;;;20.88;13.02;;;;;;;9.99;100.00;101395.72;5049159;28;20072;-76
2021/11/19 04:00:53;;;;;;;21.05;14.02;;;;;;;9.97;100.00;101386.22;5038658;28;20049;-74
2021/11/19 04:03:20;;;;;;;18.00;13.00;;;;;;;10.02;100.00;101384.22;5058623;28;20057;-77
2021/11/19 04:05:48;;;;;;;20.33;13.63;;;;;;;10.04;100.00;101400.78;5047262;28;20075;-76
2021/11/19 04:08:16;;;;;;;18.65;13.38;;;;;;;9.98;100.00;101390.53;5064094;28;20053;-77
2021/11/19 04:10:44;;;;;;;18.45;13.40;;;;;;;10.05;100.00;101384.09;5043535;28;20136;-76
2021/11/19 04:13:12;;;;;;;16.92;13.60;;;;;;;9.99;100.00;101390.47;5051655;28;20158;-76
2021/11/19 04:15:43;;;;;;;19.23;14.48;;;;;;;9.97;100.00;101386.22;5045602;28;20055;-76
2021/11/19 04:18:12;;;;;;;20.73;14.70;;;;;;;9.98;100.00;101395.81;5047725;28;20048;-77
2021/11/19 04:20:39;;;;;;;22.42;14.88;;;;;;;9.99;100.00;101390.47;5029350;28;20193;-77
2021/11/19 04:23:07;;;;;;;20.40;14.68;;;;;;;10.00;100.00;101392.19;5051748;28;20132;-76
2021/11/19 04:25:34;;;;;;;25.08;16.45;;;;;;;10.00;100.00;101380.81;5062112;28;20051;-74
2021/11/19 04:28:02;;;;;;;20.77;15.85;;;;;;;9.97;100.00;101376.53;5065273;28;20052;-76
2021/11/19 04:30:33;;;;;;;22.90;16.33;;;;;;;9.99;100.00;101377.31;5038354;28;20556;-75
2021/11/19 04:33:01;;;;;;;22.33;16.00;;;;;;;9.88;100.00;101376.94;5047659;28;20049;-75
2021/11/19 04:35:30;;;;;;;24.60;16.58;;;;;;;9.90;100.00;101378.56;5058795;28;20091;-75
2021/11/19 04:37:58;;;;;;;30.42;17.23;;;;;;;9.85;100.00;101371.81;5048342;28;20140;-75
2021/11/19 04:40:28;;;;;;;30.77;18.90;;;;;;;9.86;100.00;101384.91;5060035;28;20491;-74
2021/11/19 04:42:55;;;;;;;28.15;17.75;;;;;;;9.90;100.00;101369.81;5065656;28;20468;-75
2021/11/19 04:45:26;;;;;;;26.67;18.23;;;;;;;9.89;100.00;101382.13;5039627;28;20156;-76
2021/11/19 04:47:53;;;;;;;30.30;20.05;;;;;;;9.92;100.00;101383.78;5065482;28;20049;-75
2021/11/19 04:50:23;;;;;;;28.83;19.60;;;;;;;9.89;100.00;101386.53;5042268;28;20044;-73
2021/11/19 04:52:50;;;;;;;28.90;19.75;;;;;;;9.87;100.00;101378.72;5064152;28;20051;-74
2021/11/19 04:55:19;;;;;;;30.55;20.15;;;;;;;9.89;100.00;101383.91;5057957;28;20089;-75
2021/11/19 04:57:46;;;;;;;29.90;20.30;;;;;;;9.88;100.00;101392.72;5066053;28;20072;-75
2021/11/19 05:00:23;;;;;;;33.05;21.73;;;;;;;9.89;100.00;101394.44;5057940;28;20075;-76
2021/11/19 05:02:50;;;;;;;29.40;21.52;;;;;;;9.83;100.00;101390.28;5060486;28;20049;-75
2021/11/19 05:05:18;;;;;;;34.70;22.23;;;;;;;9.89;100.00;101395.28;5053812;28;20048;-75
2021/11/19 05:07:45;;;;;;;31.02;21.60;;;;;;;9.90;100.00;101391.72;5047476;28;20048;-75
2021/11/19 05:10:12;;;;;;;32.88;22.05;;;;;;;9.92;100.00;101383.78;5045782;28;20055;-74
2021/11/19 05:12:52;;;;;;;36.90;23.10;;;;;;;9.87;100.00;101399.75;5066839;28;20140;-74
2021/11/19 05:15:19;;;;;;;38.42;22.77;;;;;;;9.90;100.00;101391.72;5057589;28;20048;-74
2021/11/19 05:17:47;;;;;;;35.70;23.13;;;;;;;9.91;100.00;101395.22;5062501;28;20658;-76
2021/11/19 05:20:18;;;;;;;36.83;23.23;;;;;;;9.90;100.00;101388.25;5058766;28;20048;-75
2021/11/19 05:22:45;;;;;;;39.97;24.05;;;;;;;9.91;100.00;101376.81;5047695;28;20155;-75
2021/11/19 05:25:15;;;;;;;37.85;24.45;;;;;;;9.92;100.00;101386.41;5043518;28;20371;-75
2021/11/19 05:27:43;;;;;;;34.45;22.45;;;;;;;9.92;100.00;101375.88;5067145;28;20711;-75
2021/11/19 05:30:11;;;;;;;37.47;23.13;;;;;;;9.93;100.00;101388.13;5045180;28;20447;-74
2021/11/19 05:32:39;;;;;;;38.88;23.65;;;;;;;9.94;100.00;101375.81;5045072;28;20139;-74
2021/11/19 05:35:08;;;;;;;39.45;22.70;;;;;;;9.95;100.00;101372.25;5041618;28;20055;-74
2021/11/19 05:37:37;;;;;;;43.25;23.27;;;;;;;9.98;100.00;101372.97;5064122;28;20495;-75
2021/11/19 05:40:06;;;;;;;33.65;23.25;;;;;;;9.99;100.00;101373.81;5048411;28;20396;-74
2021/11/19 05:42:33;;;;;;;33.55;22.10;;;;;;;10.01;100.00;101383.38;5070266;28;20109;-74
2021/11/19 05:45:01;;;;;;;36.08;21.95;;;;;;;10.06;100.00;101375.28;5059972;28;20052;-74
2021/11/19 05:47:28;;;;;;;34.42;21.27;;;;;;;10.07;100.00;101387.50;5052112;28;20044;-74
2021/11/19 05:50:00;;;;;;;29.38;19.15;;;;;;;10.07;100.00;101380.47;5065454;28;20434;-78
2021/11/19 05:52:28;;;;;;;32.15;21.45;;;;;;;10.09;100.00;101380.41;5057560;28;20040;-78
2021/11/19 05:54:55;;;;;;;28.40;18.45;;;;;;;10.11;100.00;101379.41;5060222;28;20462;-78
2021/11/19 05:57:23;;;;;;;28.70;19.17;;;;;;;10.14;100.00;101388.94;5068867;28;20084;-76
2021/11/19 05:59:51;;;;;;;28.00;19.05;;;;;;;10.19;100.00;101383.47;5059720;28;20529;-77
2021/11/19 06:02:19;;;;;;;35.00;19.27;;;;;;;10.18;100.00;101397.53;5047322;28;20196;-79
2021/11/19 06:04:46;;;;;;;28.02;19.30;;;;;;;10.29;100.00;101397.94;5057189;28;20514;-79
2021/11/19 06:07:14;;;;;;;25.25;17.48;;;;;;;10.26;100.00;101393.66;5067016;28;20514;-78
2021/11/19 06:09:41;;;;;;;26.13;16.63;;;;;;;10.27;100.00;101399.81;5061241;28;20593;-81
2021/11/19 06:12:32;;;;;;;25.98;16.95;;;;;;;10.33;100.00;101402.16;5036889;28;20057;-78
2021/11/19 06:15:02;;;;;;;31.50;17.00;;;;;;;10.30;100.00;101403.13;5060020;28;20054;-78
2021/11/19 06:17:37;;;;;;;22.05;15.48;;;;;;;10.35;100.00;101398.50;5063112;28;20072;-78
2021/11/19 06:20:18;;;;;;;20.02;15.02;;;;;;;10.31;100.00;101407.50;5044433;28;20127;-79
2021/11/19 06:22:56;;;;;;;19.75;14.68;;;;;;;10.33;100.00;101407.41;5050831;28;20082;-78
2021/11/19 06:25:27;;;;;;;21.65;15.70;;;;;;;10.38;100.00;101410.69;5045976;28;20059;-78
2021/11/19 06:28:10;;;;;;;22.63;15.77;;;;;;;10.34;100.00;101404.72;5059921;28;20044;-79
2021/11/19 06:30:40;;;;;;;21.75;14.98;;;;;;;10.38;100.00;101414.19;5061216;28;20492;-80
2021/11/19 06:33:07;;;;;;;24.20;15.70;;;;;;;10.38;100.00;101408.91;5064240;28;20503;-80
2021/11/19 06:35:35;;;;;;;18.25;13.73;;;;;;;10.42;100.00;101416.69;5050293;28;20408;-77
2021/11/19 06:38:03;;;;;;;21.77;14.65;;;;;;;10.38;100.00;101422.06;5061576;28;20140;-80
2021/11/19 06:40:32;;;;;;;25.42;16.02;;;;;;;10.41;100.00;101410.56;5044991;28;20123;-79
2021/11/19 06:43:00;;;;;;;25.08;15.52;;;;;;;10.48;100.00;101408.50;5061849;28;20075;-78
2021/11/19 06:45:28;;;;;;;21.77;14.88;;;;;;;10.43;100.00;101431.53;5064582;28;20137;-77
2021/11/19 06:47:56;;;;;;;20.55;14.40;;;;;;;10.43;100.00;101424.50;5051965;28;20057;-79
2021/11/19 06:50:26;;;;;;;23.17;16.55;;;;;;;10.44;100.00;101420.94;5064625;28;20139;-79
2021/11/19 06:52:53;;;;;;;19.75;14.82;;;;;;;10.45;100.00;101419.19;5051052;28;20052;-79
2021/11/19 06:55:23;;;;;;;20.95;15.00;;;;;;;10.47;100.00;101414.69;5062097;28;20390;-77
2021/11/19 06:57:50;;;;;;;21.67;13.93;;;;;;;10.45;100.00;101413.91;5031921;28;20051;-78
2021/11/19 07:00:22;;;;;;;20.38;15.18;;;;;;;10.50;100.00;101418.03;5052447;28;20101;-77
2021/11/19 07:02:49;;;;;;;19.05;14.60;;;;;;;10.50;100.00;101423.31;5055030;28;20132;-76
2021/11/19 07:05:17;;;;;;;22.08;15.45;;;;;;;10.49;100.00;101413.69;5058457;28;20124;-78
2021/11/19 07:07:45;;;;;;;18.35;13.43;;;;;;;10.51;100.00;101424.16;5068184;28;20136;-78
2021/11/19 07:10:14;;;;;;;18.73;13.07;;;;;;;10.50;100.00;101425.09;5056343;28;20068;-78
2021/11/19 07:12:41;;;;;;;20.25;14.18;;;;;;;10.51;100.00;101432.06;5064021;28;20051;-77
2021/11/19 07:15:11;;;;;;;20.40;14.13;;;;;;;10.50;100.00;101428.56;5063057;28;20052;-77
2021/11/19 07:17:39;;;;;;;17.92;13.82;;;;;;;10.48;100.00;101432.19;5065503;28;20056;-77
2021/11/19 07:20:10;;;;;;;16.30;13.38;;;;;;;10.54;100.00;101440.66;5046462;28;20135;-77
2021/11/19 07:22:39;;;;;;;19.48;13.20;;;;;;;10.54;100.00;101429.28;5046486;28;20053;-76
2021/11/19 07:25:09;;;;;;;23.58;13.90;;;;;;;10.52;100.00;101431.97;5057834;28;20052;-79
2021/11/19 07:27:37;;;;;;;18.10;12.90;;;;;;;10.52;100.00;101423.22;5063373;28;20139;-78
2021/11/19 07:30:09;;;;;;;17.60;13.70;;;;;;;10.59;100.00;101433.41;5058657;28;20235;-78
2021/11/19 07:32:37;;;;;;;20.50;13.35;;;;;;;10.56;100.00;101433.53;5049346;28;20263;-78
2021/11/19 07:35:08;;;;;;;18.67;13.40;;;;;;;10.57;100.00;101431.75;5054007;28;20550;-78
2021/11/19 07:37:38;;;;;;;25.00;13.93;;;;;;;10.58;100.00;101439.59;5068491;28;20052;-78
2021/11/19 07:40:07;;;;;;;14.98;12.13;;;;;;;10.65;100.00;101432.25;5056158;28;20136;-78
2021/11/19 07:42:36;;;;;;;16.23;11.52;;;;;;;10.67;100.00;101434.81;5093575;28;20079;-78
2021/11/19 07:45:05;;;;;;;13.90;11.63;;;;;;;10.64;100.00;101447.22;5061373;28;20503;-78
2021/11/19 07:47:33;;;;;;;14.55;11.20;;;;;;;10.71;100.00;101445.13;5044451;28;20056;-77
2021/11/19 07:50:04;;;;;;;14.35;10.98;;;;;;;10.73;100.00;101451.19;5061130;28;20071;-78
2021/11/19 07:52:31;;;;;;;15.63;11.48;;;;;;;10.73;100.00;101445.94;5064206;28;20059;-77
2021/11/19 07:54:59;;;;;;;12.60;10.13;;;;;;;10.74;100.00;101445.00;5058088;28;20040;-78
2021/11/19 07:57:26;;;;;;;12.60;10.13;;;;;;;10.82;100.00;101452.56;5047921;28;20045;-78
2021/11/19 07:59:53;;;;;;;15.30;11.70;;;;;;;10.77;100.00;101450.13;5057899;28;20044;-77
2021/11/19 08:02:27;;;;;;;18.00;11.43;;;;;;;10.81;100.00;101467.50;5066197;28;20131;-77
2021/11/19 08:04:57;;;;;;;14.90;10.32;;;;;;;10.78;100.00;101459.75;5067949;28;20449;-78
2021/11/19 08:07:24;;;;;;;15.15;11.35;;;;;;;10.73;100.00;101456.47;5065318;28;20087;-79
2021/11/19 08:09:51;;;;;;;13.70;11.20;;;;;;;10.79;100.00;101456.19;5045761;28;20140;-77
2021/11/19 08:12:18;;;;;;;13.15;11.40;;;;;;;10.84;100.00;101454.19;5060134;28;20418;-77
2021/11/19 08:14:46;;;;;;;14.30;10.50;;;;;;;10.82;100.00;101463.09;5063885;28;20123;-77
2021/11/19 08:17:26;;;;;;;12.43;10.82;;;;;;;10.82;100.00;101455.19;5068197;28;20109;-78
2021/11/19 08:19:54;;;;;;;16.10;11.35;;;;;;;10.87;100.00;101474.25;5059731;28;20048;-77
2021/11/19 08:22:22;;;;;;;15.35;10.55;;;;;;;10.88;100.00;101468.91;5048383;28;20056;-78
2021/11/19 08:24:50;;;;;;;15.27;10.50;;;;;;;10.86;100.00;101460.25;5062002;28;20044;-80
2021/11/19 08:27:20;;;;;;;17.15;10.77;;;;;;;10.90;100.00;101469.72;5068957;28;20049;-79
2021/11/19 08:29:54;;;;;;;12.68;9.90;;;;;;;10.96;100.00;101465.94;5058025;28;20060;-78
2021/11/19 08:32:25;;;;;;;12.52;10.65;;;;;;;10.95;100.00;101474.78;5059984;28;20052;-79
2021/11/19 08:34:53;;;;;;;14.93;11.02;;;;;;;10.94;100.00;101474.81;5062352;28;20076;-76
2021/11/19 08:37:25;;;;;;;13.70;11.27;;;;;;;10.86;100.00;101467.28;5064884;28;20055;-77
2021/11/19 08:39:54;;;;;;;14.38;10.10;;;;;;;10.98;100.00;101476.38;5037544;28;20244;-78
2021/11/19 08:42:23;;;;;;;13.27;10.30;;;;;;;10.97;100.00;101477.31;5062444;28;20538;-80
2021/11/19 08:44:50;;;;;;;17.38;12.68;;;;;;;10.94;100.00;101465.13;5061543;28;20080;-78
2021/11/19 08:47:37;;;;;;;16.75;10.45;;;;;;;10.96;100.00;101465.94;5056873;28;20143;-77
2021/11/19 08:50:10;;;;;;;14.65;11.07;;;;;;;10.98;100.00;101471.97;5062417;28;20076;-79
2021/11/19 08:52:37;;;;;;;15.25;10.88;;;;;;;10.99;100.00;101472.84;5065172;28;20083;-76
2021/11/19 08:55:06;;;;;;;14.77;10.55;;;;;;;10.99;100.00;101473.69;5049507;28;20140;-78
2021/11/19 08:57:33;;;;;;;19.25;12.00;;;;;;;11.03;100.00;101471.75;5047765;28;20049;-78
2021/11/19 09:00:05;;;;;;;18.77;12.10;;;;;;;11.02;100.00;101477.94;5067858;28;20135;-78
2021/11/19 09:02:32;;;;;;;18.98;11.63;;;;;;;11.05;100.00;101478.66;5065280;28;20127;-78
2021/11/19 09:05:04;;;;;;;18.67;11.43;;;;;;;11.05;100.00;101467.28;5069190;28;20059;-78
2021/11/19 09:07:33;;;;;;;18.13;11.48;;;;;;;11.07;100.00;101470.69;5071614;28;20443;-78
2021/11/19 09:10:05;;;;;;;17.95;11.93;;;;;;;11.05;100.00;101473.41;5070106;28;20048;-78
2021/11/19 09:12:33;;;;;;;12.88;10.77;;;;;;;11.06;100.00;101477.75;5068100;28;20451;-76
2021/11/19 09:15:00;;;;;;;13.50;10.48;;;;;;;11.04;100.00;101476.97;5070270;28;20062;-78
2021/11/19 09:17:30;;;;;;;18.83;11.43;;;;;;;11.08;100.00;101483.81;5054582;28;20040;-79
2021/11/19 09:20:02;;;;;;;17.02;11.95;;;;;;;11.04;100.00;101486.66;5065755;28;20264;-78
2021/11/19 09:22:39;;;;;;;15.43;12.20;;;;;;;10.99;100.00;101489.50;5064381;28;20439;-78
2021/11/19 09:25:10;;;;;;;17.27;13.68;;;;;;;10.97;100.00;101485.22;5050907;28;20131;-77
2021/11/19 09:27:38;;;;;;;14.80;11.93;;;;;;;11.01;100.00;101497.31;5073654;28;20156;-78
2021/11/19 09:30:14;;;;;;;20.98;12.70;;;;;;;10.99;100.00;101486.88;5072371;28;20041;-79
2021/11/19 09:32:48;;;;;;;14.95;11.90;;;;;;;11.02;100.00;101486.72;5044843;28;20575;-78
2021/11/19 09:35:16;;;;;;;15.70;12.75;;;;;;;10.99;100.00;101488.66;5060149;28;20060;-77
2021/11/19 09:37:45;;;;;;;16.58;12.40;;;;;;;11.00;100.00;101485.09;5044095;28;20053;-77
2021/11/19 09:40:12;;;;;;;18.83;13.52;;;;;;;11.02;100.00;101488.50;5068466;28;20044;-76
2021/11/19 09:42:47;;;;;;;20.50;13.50;;;;;;;10.92;100.00;101503.88;5049362;28;20377;-77
2021/11/19 09:45:27;;;;;;;19.03;12.87;;;;;;;10.96;100.00;101488.78;5040209;28;20502;-77
2021/11/19 09:48:13;;;;;;;18.65;13.82;;;;;;;10.96;100.00;101487.00;5025118;28;20069;-77
2021/11/19 09:50:55;;;;;;;23.85;13.15;;;;;;;10.96;100.00;101505.44;5061883;28;20175;-78
2021/11/19 09:54:05;;;;;;;21.98;15.00;;;;;;;10.98;100.00;101493.03;5065807;28;20040;-78
2021/11/19 09:56:45;;;;;;;22.73;13.10;;;;;;;11.04;100.00;101494.56;5059833;28;20561;-77
2021/11/19 09:59:21;;;;;;;21.52;13.90;;;;;;;11.10;100.00;101486.34;5060725;28;20136;-82
2021/11/19 10:02:16;;;;;;;23.08;13.77;;;;;;;11.06;100.00;101488.28;5052319;28;20487;-77
2021/11/19 10:05:23;;;;;;;20.58;14.73;;;;;;;11.00;100.00;101491.22;5063551;28;20082;-80
2021/11/19 10:08:09;;;;;;;18.50;14.13;;;;;;;11.02;100.00;101493.75;5035874;28;20045;-79
2021/11/19 10:10:57;;;;;;;22.98;15.20;;;;;;;10.99;100.00;101488.66;5050603;28;20147;-78
2021/11/19 10:13:45;;;;;;;23.92;15.05;;;;;;;10.99;100.00;101488.66;5043970;28;20049;-76
2021/11/19 10:16:40;;;;;;;24.80;14.75;;;;;;;10.94;100.00;101499.38;5035249;28;20171;-79
2021/11/19 10:19:14;;;;;;;22.38;16.33;;;;;;;10.97;100.00;101487.84;5075807;28;20135;-79
2021/11/19 10:22:04;;;;;;;21.42;15.40;;;;;;;10.92;100.00;101493.34;5061911;28;20056;-79
2021/11/19 10:24:43;;;;;;;23.05;15.88;;;;;;;10.89;100.00;101485.56;5047192;28;20044;-77
2021/11/19 10:27:21;;;;;;;21.65;15.50;;;;;;;10.97;100.00;101479.94;5062983;28;20134;-82
2021/11/19 10:30:06;;;;;;;23.60;15.32;;;;;;;11.02;100.00;101475.31;5037839;28;20132;-77
2021/11/19 10:32:33;;;;;;;24.73;15.68;;;;;;;11.04;100.00;101479.59;5064230;28;20439;-77
2021/11/19 10:35:14;;;;;;;21.75;14.57;;;;;;;11.05;100.00;101486.56;5029542;28;20139;-78
2021/11/19 10:38:02;;;;;;;22.30;14.10;;;;;;;10.99;100.00;101499.19;5056376;28;20136;-77
2021/11/19 10:40:52;;;;;;;27.80;16.38;;;;;;;10.93;100.00;101484.50;5041174;28;20040;-77
2021/11/19 10:43:32;;;;;;;28.75;15.70;;;;;;;10.97;100.00;101479.94;5058882;28;20554;-77
2021/11/19 10:45:59;;;;;;;29.08;16.42;;;;;;;11.00;100.00;101469.28;5059843;28;20055;-78
2021/11/19 10:48:52;;;;;;;27.02;15.40;;;;;;;11.05;100.00;101477.81;5060787;28;20052;-80
2021/11/19 10:51:59;;;;;;;24.55;16.52;;;;;;;11.08;100.00;101475.91;5062359;28;20384;-79
2021/11/19 10:54:33;;;;;;;19.60;14.15;;;;;;;11.09;100.00;101480.22;5061113;28;20557;-76
2021/11/19 10:57:15;;;;;;;24.15;16.13;;;;;;;11.06;100.00;101476.88;5071952;28;20405;-77
2021/11/19 11:00:04;;;;;;;26.77;16.20;;;;;;;11.08;100.00;101482.94;5060708;28;20140;-76
2021/11/19 11:02:40;;;;;;;34.65;17.35;;;;;;;11.15;100.00;101484.34;5060654;28;20071;-79
2021/11/19 11:05:30;;;;;;;22.67;15.90;;;;;;;11.12;100.00;101477.47;5040382;28;20583;-77
2021/11/19 11:08:19;;;;;;;21.48;14.90;;;;;;;11.13;100.00;101492.34;5065780;28;20044;-77
2021/11/19 11:10:57;;;;;;;21.35;15.65;;;;;;;11.16;100.00;101476.38;5034785;28;20148;-77
2021/11/19 11:14:02;;;;;;;26.23;16.27;;;;;;;11.20;100.00;101492.88;5045491;28;20402;-76
2021/11/19 11:16:42;;;;;;;22.58;14.52;;;;;;;11.24;100.00;101480.44;5042127;28;20099;-78
2021/11/19 11:19:09;;;;;;;23.85;13.38;;;;;;;11.30;100.00;101480.13;5041870;28;20049;-80
2021/11/19 11:22:03;;;;;;;24.98;14.32;;;;;;;11.31;100.00;101474.78;5066541;28;20164;-79
2021/11/19 11:25:05;;;;;;;20.92;14.82;;;;;;;11.25;100.00;101476.84;5065352;28;20255;-78
2021/11/19 11:27:56;;;;;;;27.15;14.65;;;;;;;11.33;100.00;101475.56;5046882;28;20466;-79
2021/11/19 11:30:44;;;;;;;19.50;13.07;;;;;;;11.33;100.00;101469.44;5035334;28;20444;-77